sensor_id;sensor_type;location;lat;lon;timestamp;temperature;humidity
7738;DHT22;29398;45.328;5.558;2022-11-15T00:00:17;12.40;99.90
7738;DHT22;29398;45.328;5.558;2022-11-15T00:01:38;12.50;99.90
7738;DHT22;29398;45.328;5.558;2022-11-15T00:03:00;12.50;99.90
7738;DHT22;29398;45.328;5.558;2022-11-15T00:04:19;12.40;99.90
7738;DHT22;29398;45.328;5.558;2022-11-15T00:05:40;12.60;99.90
7738;DHT22;29398;45.328;5.558;2022-11-15T00:06:59;12.40;99.90
7738;DHT22;29398;45.328;5.558;2022-11-15T00:08:20;12.50;99.90
7738;DHT22;29398;45.328;5.558;2022-11-15T00:09:40;12.40;99.90
7738;DHT22;29398;45.328;5.558;2022-11-15T00:11:02;12.50;99.90
7738;DHT22;29398;45.328;5.558;2022-11-15T00:12:23;12.50;99.90
7738;DHT22;29398;45.328;5.558;2022-11-15T00:13:44;12.40;99.90
7738;DHT22;29398;45.328;5.558;2022-11-15T00:15:04;12.40;99.90
7738;DHT22;29398;45.328;5.558;2022-11-15T00:16:24;12.40;99.90
7738;DHT22;29398;45.328;5.558;2022-11-15T00:17:48;12.50;99.90
7738;DHT22;29398;45.328;5.558;2022-11-15T00:19:08;12.50;99.90
7738;DHT22;29398;45.328;5.558;2022-11-15T00:20:28;12.40;99.90
7738;DHT22;29398;45.328;5.558;2022-11-15T00:21:48;12.40;99.90
7738;DHT22;29398;45.328;5.558;2022-11-15T00:23:09;12.40;99.90
7738;DHT22;29398;45.328;5.558;2022-11-15T00:24:28;12.40;99.90
7738;DHT22;29398;45.328;5.558;2022-11-15T00:25:55;12.40;99.90
7738;DHT22;29398;45.328;5.558;2022-11-15T00:27:17;12.40;99.90
7738;DHT22;29398;45.328;5.558;2022-11-15T00:28:37;12.40;99.90
7738;DHT22;29398;45.328;5.558;2022-11-15T00:29:57;12.40;99.90
7738;DHT22;29398;45.328;5.558;2022-11-15T00:31:17;12.40;99.90
7738;DHT22;29398;45.328;5.558;2022-11-15T00:32:38;12.40;99.90
7738;DHT22;29398;45.328;5.558;2022-11-15T00:33:58;12.40;99.90
7738;DHT22;29398;45.328;5.558;2022-11-15T00:35:20;12.50;99.90
7738;DHT22;29398;45.328;5.558;2022-11-15T00:36:39;12.40;99.90
7738;DHT22;29398;45.328;5.558;2022-11-15T00:38:00;12.40;99.90
7738;DHT22;29398;45.328;5.558;2022-11-15T00:39:20;12.40;99.90
7738;DHT22;29398;45.328;5.558;2022-11-15T00:40:41;12.40;99.90
7738;DHT22;29398;45.328;5.558;2022-11-15T00:42:01;12.40;99.90
7738;DHT22;29398;45.328;5.558;2022-11-15T00:43:23;12.40;99.90
7738;DHT22;29398;45.328;5.558;2022-11-15T00:44:42;12.40;99.90
7738;DHT22;29398;45.328;5.558;2022-11-15T00:46:03;12.40;99.90
7738;DHT22;29398;45.328;5.558;2022-11-15T00:47:22;12.40;99.90
7738;DHT22;29398;45.328;5.558;2022-11-15T00:48:43;12.40;99.90
7738;DHT22;29398;45.328;5.558;2022-11-15T00:50:03;12.40;99.90
7738;DHT22;29398;45.328;5.558;2022-11-15T00:51:24;12.40;99.90
7738;DHT22;29398;45.328;5.558;2022-11-15T00:52:44;12.40;99.90
7738;DHT22;29398;45.328;5.558;2022-11-15T00:54:04;12.40;99.90
7738;DHT22;29398;45.328;5.558;2022-11-15T00:55:24;12.40;99.90
7738;DHT22;29398;45.328;5.558;2022-11-15T00:56:44;12.40;99.90
7738;DHT22;29398;45.328;5.558;2022-11-15T00:58:04;11.90;99.90
7738;DHT22;29398;45.328;5.558;2022-11-15T00:59:26;12.40;99.90
7738;DHT22;29398;45.328;5.558;2022-11-15T01:00:47;12.40;99.90
7738;DHT22;29398;45.328;5.558;2022-11-15T01:02:06;12.30;99.90
7738;DHT22;29398;45.328;5.558;2022-11-15T01:03:27;12.40;99.90
7738;DHT22;29398;45.328;5.558;2022-11-15T01:04:46;12.40;99.90
7738;DHT22;29398;45.328;5.558;2022-11-15T01:06:07;12.30;99.90
7738;DHT22;29398;45.328;5.558;2022-11-15T01:07:27;12.30;99.90
7738;DHT22;29398;45.328;5.558;2022-11-15T01:08:47;12.40;99.90
7738;DHT22;29398;45.328;5.558;2022-11-15T01:10:11;12.40;99.90
7738;DHT22;29398;45.328;5.558;2022-11-15T01:11:31;12.40;99.90
7738;DHT22;29398;45.328;5.558;2022-11-15T01:12:52;12.30;99.90
7738;DHT22;29398;45.328;5.558;2022-11-15T01:14:11;12.30;99.90
7738;DHT22;29398;45.328;5.558;2022-11-15T01:15:33;12.40;99.90
7738;DHT22;29398;45.328;5.558;2022-11-15T01:16:53;12.40;99.90
7738;DHT22;29398;45.328;5.558;2022-11-15T01:18:13;12.40;99.90
7738;DHT22;29398;45.328;5.558;2022-11-15T01:19:33;12.40;99.90
7738;DHT22;29398;45.328;5.558;2022-11-15T01:20:53;12.40;99.90
7738;DHT22;29398;45.328;5.558;2022-11-15T01:22:13;12.40;99.90
7738;DHT22;29398;45.328;5.558;2022-11-15T01:23:33;12.40;99.90
7738;DHT22;29398;45.328;5.558;2022-11-15T01:24:53;12.40;99.90
7738;DHT22;29398;45.328;5.558;2022-11-15T01:26:14;12.40;99.90
7738;DHT22;29398;45.328;5.558;2022-11-15T01:27:35;12.40;99.90
7738;DHT22;29398;45.328;5.558;2022-11-15T01:28:55;12.40;99.90
7738;DHT22;29398;45.328;5.558;2022-11-15T01:30:16;12.40;99.90
7738;DHT22;29398;45.328;5.558;2022-11-15T01:31:37;12.30;99.90
7738;DHT22;29398;45.328;5.558;2022-11-15T01:32:57;12.30;99.90
7738;DHT22;29398;45.328;5.558;2022-11-15T01:34:17;12.30;99.90
7738;DHT22;29398;45.328;5.558;2022-11-15T01:35:38;12.30;99.90
7738;DHT22;29398;45.328;5.558;2022-11-15T01:36:59;13.10;99.90
7738;DHT22;29398;45.328;5.558;2022-11-15T01:38:20;12.40;99.90
7738;DHT22;29398;45.328;5.558;2022-11-15T01:39:39;12.30;99.90
7738;DHT22;29398;45.328;5.558;2022-11-15T01:41:00;12.30;99.90
7738;DHT22;29398;45.328;5.558;2022-11-15T01:42:19;12.30;99.90
7738;DHT22;29398;45.328;5.558;2022-11-15T01:43:40;12.30;99.90
7738;DHT22;29398;45.328;5.558;2022-11-15T01:45:01;12.30;99.90
7738;DHT22;29398;45.328;5.558;2022-11-15T01:46:28;12.30;99.90
7738;DHT22;29398;45.328;5.558;2022-11-15T01:47:52;12.30;99.90
7738;DHT22;29398;45.328;5.558;2022-11-15T01:49:16;12.40;99.90
7738;DHT22;29398;45.328;5.558;2022-11-15T01:50:38;12.30;99.90
7738;DHT22;29398;45.328;5.558;2022-11-15T01:52:00;12.30;99.90
7738;DHT22;29398;45.328;5.558;2022-11-15T01:53:21;12.40;99.90
7738;DHT22;29398;45.328;5.558;2022-11-15T01:54:43;12.40;99.90
7738;DHT22;29398;45.328;5.558;2022-11-15T01:56:07;12.30;99.90
7738;DHT22;29398;45.328;5.558;2022-11-15T01:57:28;12.30;99.90
7738;DHT22;29398;45.328;5.558;2022-11-15T01:58:48;12.40;99.90
7738;DHT22;29398;45.328;5.558;2022-11-15T02:00:12;12.30;99.90
7738;DHT22;29398;45.328;5.558;2022-11-15T02:01:33;12.30;99.90
7738;DHT22;29398;45.328;5.558;2022-11-15T02:02:54;12.30;99.90
7738;DHT22;29398;45.328;5.558;2022-11-15T02:04:17;12.30;99.90
7738;DHT22;29398;45.328;5.558;2022-11-15T02:05:40;12.30;99.90
7738;DHT22;29398;45.328;5.558;2022-11-15T02:07:02;12.30;99.90
7738;DHT22;29398;45.328;5.558;2022-11-15T02:08:26;12.30;99.90
7738;DHT22;29398;45.328;5.558;2022-11-15T02:09:48;12.20;99.90
7738;DHT22;29398;45.328;5.558;2022-11-15T02:11:09;12.20;99.90
7738;DHT22;29398;45.328;5.558;2022-11-15T02:12:28;12.20;99.90
7738;DHT22;29398;45.328;5.558;2022-11-15T02:13:49;12.20;99.90
7738;DHT22;29398;45.328;5.558;2022-11-15T02:15:09;12.20;99.90
7738;DHT22;29398;45.328;5.558;2022-11-15T02:16:38;12.20;99.90
7738;DHT22;29398;45.328;5.558;2022-11-15T02:18:11;12.30;99.90
7738;DHT22;29398;45.328;5.558;2022-11-15T02:19:58;12.30;99.90
7738;DHT22;29398;45.328;5.558;2022-11-15T02:21:27;12.20;99.90
7738;DHT22;29398;45.328;5.558;2022-11-15T02:23:06;12.30;99.90
7738;DHT22;29398;45.328;5.558;2022-11-15T02:24:50;12.20;99.90
7738;DHT22;29398;45.328;5.558;2022-11-15T02:26:48;12.20;99.90
7738;DHT22;29398;45.328;5.558;2022-11-15T02:28:35;12.20;99.90
7738;DHT22;29398;45.328;5.558;2022-11-15T02:30:19;12.20;99.90
7738;DHT22;29398;45.328;5.558;2022-11-15T02:31:43;12.20;99.90
7738;DHT22;29398;45.328;5.558;2022-11-15T02:33:12;12.20;99.90
7738;DHT22;29398;45.328;5.558;2022-11-15T02:34:42;12.20;99.90
7738;DHT22;29398;45.328;5.558;2022-11-15T02:36:09;12.20;99.90
7738;DHT22;29398;45.328;5.558;2022-11-15T02:37:35;12.20;99.90
7738;DHT22;29398;45.328;5.558;2022-11-15T02:39:03;12.30;99.90
7738;DHT22;29398;45.328;5.558;2022-11-15T02:40:34;12.80;99.90
7738;DHT22;29398;45.328;5.558;2022-11-15T02:42:00;12.00;99.90
7738;DHT22;29398;45.328;5.558;2022-11-15T02:43:26;12.20;99.90
7738;DHT22;29398;45.328;5.558;2022-11-15T02:45:10;12.20;99.90
7738;DHT22;29398;45.328;5.558;2022-11-15T02:46:36;12.20;99.90
7738;DHT22;29398;45.328;5.558;2022-11-15T02:48:17;12.30;99.90
7738;DHT22;29398;45.328;5.558;2022-11-15T02:49:39;12.30;99.90
7738;DHT22;29398;45.328;5.558;2022-11-15T02:51:01;12.30;99.90
7738;DHT22;29398;45.328;5.558;2022-11-15T02:52:23;12.30;99.90
7738;DHT22;29398;45.328;5.558;2022-11-15T02:53:44;12.20;99.90
7738;DHT22;29398;45.328;5.558;2022-11-15T02:56:41;12.20;99.90
7738;DHT22;29398;45.328;5.558;2022-11-15T02:58:13;12.20;99.90
7738;DHT22;29398;45.328;5.558;2022-11-15T02:59:51;12.20;99.90
7738;DHT22;29398;45.328;5.558;2022-11-15T03:01:24;12.20;99.90
7738;DHT22;29398;45.328;5.558;2022-11-15T03:03:00;12.20;99.90
7738;DHT22;29398;45.328;5.558;2022-11-15T03:04:32;12.20;99.90
7738;DHT22;29398;45.328;5.558;2022-11-15T03:06:02;12.20;99.90
7738;DHT22;29398;45.328;5.558;2022-11-15T03:07:29;12.20;99.90
7738;DHT22;29398;45.328;5.558;2022-11-15T03:08:57;12.20;99.90
7738;DHT22;29398;45.328;5.558;2022-11-15T03:10:22;12.10;99.90
7738;DHT22;29398;45.328;5.558;2022-11-15T03:11:48;12.10;99.90
7738;DHT22;29398;45.328;5.558;2022-11-15T03:13:15;12.20;99.90
7738;DHT22;29398;45.328;5.558;2022-11-15T03:14:39;12.10;99.90
7738;DHT22;29398;45.328;5.558;2022-11-15T03:16:04;12.10;99.90
7738;DHT22;29398;45.328;5.558;2022-11-15T03:17:29;12.10;99.90
7738;DHT22;29398;45.328;5.558;2022-11-15T03:18:55;12.10;99.90
7738;DHT22;29398;45.328;5.558;2022-11-15T03:20:16;12.10;99.90
7738;DHT22;29398;45.328;5.558;2022-11-15T03:21:38;12.10;99.90
7738;DHT22;29398;45.328;5.558;2022-11-15T03:23:04;12.10;99.90
7738;DHT22;29398;45.328;5.558;2022-11-15T03:24:26;12.10;99.90
7738;DHT22;29398;45.328;5.558;2022-11-15T03:25:49;12.10;99.90
7738;DHT22;29398;45.328;5.558;2022-11-15T03:27:14;12.10;99.90
7738;DHT22;29398;45.328;5.558;2022-11-15T03:28:37;12.10;99.90
7738;DHT22;29398;45.328;5.558;2022-11-15T03:30:02;12.10;99.90
7738;DHT22;29398;45.328;5.558;2022-11-15T03:31:26;12.10;99.90
7738;DHT22;29398;45.328;5.558;2022-11-15T03:33:03;12.10;99.90
7738;DHT22;29398;45.328;5.558;2022-11-15T03:34:29;12.10;99.90
7738;DHT22;29398;45.328;5.558;2022-11-15T03:35:52;12.10;99.90
7738;DHT22;29398;45.328;5.558;2022-11-15T03:37:15;12.20;99.90
7738;DHT22;29398;45.328;5.558;2022-11-15T03:38:38;12.20;99.90
7738;DHT22;29398;45.328;5.558;2022-11-15T03:40:00;12.20;99.90
7738;DHT22;29398;45.328;5.558;2022-11-15T03:41:23;12.20;99.90
7738;DHT22;29398;45.328;5.558;2022-11-15T03:42:48;12.30;99.90
7738;DHT22;29398;45.328;5.558;2022-11-15T03:44:15;12.20;99.90
7738;DHT22;29398;45.328;5.558;2022-11-15T03:45:41;12.30;99.90
7738;DHT22;29398;45.328;5.558;2022-11-15T03:47:07;12.30;99.90
7738;DHT22;29398;45.328;5.558;2022-11-15T03:48:34;12.30;99.90
7738;DHT22;29398;45.328;5.558;2022-11-15T03:50:01;12.30;99.90
7738;DHT22;29398;45.328;5.558;2022-11-15T03:51:22;12.40;99.90
7738;DHT22;29398;45.328;5.558;2022-11-15T03:52:45;12.30;99.90
7738;DHT22;29398;45.328;5.558;2022-11-15T03:54:06;12.30;99.90
7738;DHT22;29398;45.328;5.558;2022-11-15T03:55:26;12.30;99.90
7738;DHT22;29398;45.328;5.558;2022-11-15T03:56:46;12.10;99.90
7738;DHT22;29398;45.328;5.558;2022-11-15T03:58:06;12.20;99.90
7738;DHT22;29398;45.328;5.558;2022-11-15T03:59:26;12.20;99.90
7738;DHT22;29398;45.328;5.558;2022-11-15T04:00:46;12.20;99.90
7738;DHT22;29398;45.328;5.558;2022-11-15T04:02:06;12.20;99.90
7738;DHT22;29398;45.328;5.558;2022-11-15T04:03:26;12.20;99.90
7738;DHT22;29398;45.328;5.558;2022-11-15T04:04:46;12.10;99.90
7738;DHT22;29398;45.328;5.558;2022-11-15T04:06:07;12.10;99.90
7738;DHT22;29398;45.328;5.558;2022-11-15T04:07:28;12.20;99.90
7738;DHT22;29398;45.328;5.558;2022-11-15T04:08:49;12.10;99.90
7738;DHT22;29398;45.328;5.558;2022-11-15T04:10:09;12.10;99.90
7738;DHT22;29398;45.328;5.558;2022-11-15T04:11:30;12.20;99.90
7738;DHT22;29398;45.328;5.558;2022-11-15T04:12:49;12.10;99.90
7738;DHT22;29398;45.328;5.558;2022-11-15T04:14:10;12.10;99.90
7738;DHT22;29398;45.328;5.558;2022-11-15T04:15:29;12.10;99.90
7738;DHT22;29398;45.328;5.558;2022-11-15T04:16:49;12.10;99.90
7738;DHT22;29398;45.328;5.558;2022-11-15T04:18:09;12.10;99.90
7738;DHT22;29398;45.328;5.558;2022-11-15T04:19:29;12.20;99.90
7738;DHT22;29398;45.328;5.558;2022-11-15T04:21:09;12.10;99.90
7738;DHT22;29398;45.328;5.558;2022-11-15T04:22:47;12.20;99.90
7738;DHT22;29398;45.328;5.558;2022-11-15T04:24:26;12.20;99.90
7738;DHT22;29398;45.328;5.558;2022-11-15T04:25:46;12.20;99.90
7738;DHT22;29398;45.328;5.558;2022-11-15T04:27:08;12.10;99.90
7738;DHT22;29398;45.328;5.558;2022-11-15T04:28:29;12.10;99.90
7738;DHT22;29398;45.328;5.558;2022-11-15T04:29:49;12.10;99.90
7738;DHT22;29398;45.328;5.558;2022-11-15T04:31:10;12.10;99.90
7738;DHT22;29398;45.328;5.558;2022-11-15T04:32:30;12.00;99.90
7738;DHT22;29398;45.328;5.558;2022-11-15T04:33:50;12.00;99.90
7738;DHT22;29398;45.328;5.558;2022-11-15T04:35:11;12.00;99.90
7738;DHT22;29398;45.328;5.558;2022-11-15T04:36:32;12.00;99.90
7738;DHT22;29398;45.328;5.558;2022-11-15T04:38:11;12.00;99.90
7738;DHT22;29398;45.328;5.558;2022-11-15T04:39:31;12.00;99.90
7738;DHT22;29398;45.328;5.558;2022-11-15T04:40:51;12.00;99.90
7738;DHT22;29398;45.328;5.558;2022-11-15T04:42:11;11.90;99.90
7738;DHT22;29398;45.328;5.558;2022-11-15T04:43:32;11.80;99.90
7738;DHT22;29398;45.328;5.558;2022-11-15T04:44:53;11.80;99.90
7738;DHT22;29398;45.328;5.558;2022-11-15T04:46:12;11.80;99.90
7738;DHT22;29398;45.328;5.558;2022-11-15T04:47:33;11.90;99.90
7738;DHT22;29398;45.328;5.558;2022-11-15T04:48:53;11.90;99.90
7738;DHT22;29398;45.328;5.558;2022-11-15T04:50:15;11.90;99.90
7738;DHT22;29398;45.328;5.558;2022-11-15T04:51:36;11.90;99.90
7738;DHT22;29398;45.328;5.558;2022-11-15T04:52:57;11.90;99.90
7738;DHT22;29398;45.328;5.558;2022-11-15T04:54:17;11.90;99.90
7738;DHT22;29398;45.328;5.558;2022-11-15T04:55:37;11.90;99.90
7738;DHT22;29398;45.328;5.558;2022-11-15T04:56:57;11.90;99.90
7738;DHT22;29398;45.328;5.558;2022-11-15T04:58:17;11.90;99.90
7738;DHT22;29398;45.328;5.558;2022-11-15T04:59:37;11.90;99.90
7738;DHT22;29398;45.328;5.558;2022-11-15T05:00:57;11.90;99.90
7738;DHT22;29398;45.328;5.558;2022-11-15T05:02:17;11.90;99.90
7738;DHT22;29398;45.328;5.558;2022-11-15T05:03:38;11.90;99.90
7738;DHT22;29398;45.328;5.558;2022-11-15T05:05:16;11.90;99.90
7738;DHT22;29398;45.328;5.558;2022-11-15T05:06:37;11.90;99.90
7738;DHT22;29398;45.328;5.558;2022-11-15T05:07:58;11.90;99.90
7738;DHT22;29398;45.328;5.558;2022-11-15T05:09:20;12.00;99.90
7738;DHT22;29398;45.328;5.558;2022-11-15T05:10:39;11.90;99.90
7738;DHT22;29398;45.328;5.558;2022-11-15T05:12:00;12.00;99.90
7738;DHT22;29398;45.328;5.558;2022-11-15T05:13:20;12.00;99.90
7738;DHT22;29398;45.328;5.558;2022-11-15T05:14:40;12.00;99.90
7738;DHT22;29398;45.328;5.558;2022-11-15T05:16:01;12.00;99.90
7738;DHT22;29398;45.328;5.558;2022-11-15T05:17:21;12.00;99.90
7738;DHT22;29398;45.328;5.558;2022-11-15T05:18:41;12.00;99.90
7738;DHT22;29398;45.328;5.558;2022-11-15T05:20:01;12.00;99.90
7738;DHT22;29398;45.328;5.558;2022-11-15T05:21:22;12.00;99.90
7738;DHT22;29398;45.328;5.558;2022-11-15T05:22:43;12.00;99.90
7738;DHT22;29398;45.328;5.558;2022-11-15T05:24:04;12.00;99.90
7738;DHT22;29398;45.328;5.558;2022-11-15T05:25:26;12.00;99.90
7738;DHT22;29398;45.328;5.558;2022-11-15T05:26:45;11.90;99.90
7738;DHT22;29398;45.328;5.558;2022-11-15T05:28:06;11.90;99.90
7738;DHT22;29398;45.328;5.558;2022-11-15T05:29:29;11.90;99.90
7738;DHT22;29398;45.328;5.558;2022-11-15T05:30:50;11.80;99.90
7738;DHT22;29398;45.328;5.558;2022-11-15T05:32:11;11.80;99.90
7738;DHT22;29398;45.328;5.558;2022-11-15T05:33:33;11.70;99.90
7738;DHT22;29398;45.328;5.558;2022-11-15T05:34:53;11.80;99.90
7738;DHT22;29398;45.328;5.558;2022-11-15T05:36:17;11.80;99.90
7738;DHT22;29398;45.328;5.558;2022-11-15T05:37:38;11.80;99.90
7738;DHT22;29398;45.328;5.558;2022-11-15T05:39:00;11.80;99.90
7738;DHT22;29398;45.328;5.558;2022-11-15T05:40:20;11.80;99.90
7738;DHT22;29398;45.328;5.558;2022-11-15T05:41:43;11.80;99.90
7738;DHT22;29398;45.328;5.558;2022-11-15T05:43:05;11.80;99.90
7738;DHT22;29398;45.328;5.558;2022-11-15T05:44:26;11.80;99.90
7738;DHT22;29398;45.328;5.558;2022-11-15T05:45:47;11.80;99.90
7738;DHT22;29398;45.328;5.558;2022-11-15T05:47:09;11.80;99.90
7738;DHT22;29398;45.328;5.558;2022-11-15T05:48:31;11.80;99.90
7738;DHT22;29398;45.328;5.558;2022-11-15T05:49:51;11.80;99.90
7738;DHT22;29398;45.328;5.558;2022-11-15T05:51:14;11.80;99.90
7738;DHT22;29398;45.328;5.558;2022-11-15T05:52:37;11.80;99.90
7738;DHT22;29398;45.328;5.558;2022-11-15T05:53:59;11.80;99.90
7738;DHT22;29398;45.328;5.558;2022-11-15T05:55:23;11.80;99.90
7738;DHT22;29398;45.328;5.558;2022-11-15T05:56:44;11.80;99.90
7738;DHT22;29398;45.328;5.558;2022-11-15T05:58:04;11.90;99.90
7738;DHT22;29398;45.328;5.558;2022-11-15T05:59:24;11.90;99.90
7738;DHT22;29398;45.328;5.558;2022-11-15T06:00:45;11.90;99.90
7738;DHT22;29398;45.328;5.558;2022-11-15T06:02:05;11.90;99.90
7738;DHT22;29398;45.328;5.558;2022-11-15T06:03:25;11.90;99.90
7738;DHT22;29398;45.328;5.558;2022-11-15T06:04:46;11.90;99.90
7738;DHT22;29398;45.328;5.558;2022-11-15T06:06:06;11.90;99.90
7738;DHT22;29398;45.328;5.558;2022-11-15T06:07:25;11.90;99.90
7738;DHT22;29398;45.328;5.558;2022-11-15T06:08:46;11.80;99.90
7738;DHT22;29398;45.328;5.558;2022-11-15T06:10:09;11.90;99.90
7738;DHT22;29398;45.328;5.558;2022-11-15T06:11:29;11.90;99.90
7738;DHT22;29398;45.328;5.558;2022-11-15T06:12:56;12.80;99.90
7738;DHT22;29398;45.328;5.558;2022-11-15T06:14:17;11.90;99.90
7738;DHT22;29398;45.328;5.558;2022-11-15T06:15:37;11.90;99.90
7738;DHT22;29398;45.328;5.558;2022-11-15T06:16:58;11.90;99.90
7738;DHT22;29398;45.328;5.558;2022-11-15T06:18:18;11.90;99.90
7738;DHT22;29398;45.328;5.558;2022-11-15T06:19:38;11.90;99.90
7738;DHT22;29398;45.328;5.558;2022-11-15T06:20:59;11.90;99.90
7738;DHT22;29398;45.328;5.558;2022-11-15T06:22:19;11.90;99.90
7738;DHT22;29398;45.328;5.558;2022-11-15T06:23:40;11.90;99.90
7738;DHT22;29398;45.328;5.558;2022-11-15T06:25:01;11.90;99.90
7738;DHT22;29398;45.328;5.558;2022-11-15T06:26:22;11.90;99.90
7738;DHT22;29398;45.328;5.558;2022-11-15T06:27:42;11.90;99.90
7738;DHT22;29398;45.328;5.558;2022-11-15T06:29:03;11.90;99.90
7738;DHT22;29398;45.328;5.558;2022-11-15T06:30:25;11.80;99.90
7738;DHT22;29398;45.328;5.558;2022-11-15T06:31:46;11.80;99.90
7738;DHT22;29398;45.328;5.558;2022-11-15T06:33:05;11.90;99.90
7738;DHT22;29398;45.328;5.558;2022-11-15T06:34:27;11.80;99.90
7738;DHT22;29398;45.328;5.558;2022-11-15T06:35:48;11.70;99.90
7738;DHT22;29398;45.328;5.558;2022-11-15T06:37:09;11.80;99.90
7738;DHT22;29398;45.328;5.558;2022-11-15T06:38:29;11.80;99.90
7738;DHT22;29398;45.328;5.558;2022-11-15T06:39:50;11.80;99.90
7738;DHT22;29398;45.328;5.558;2022-11-15T06:41:11;11.80;99.90
7738;DHT22;29398;45.328;5.558;2022-11-15T06:42:34;11.80;99.90
7738;DHT22;29398;45.328;5.558;2022-11-15T06:43:55;11.80;99.90
7738;DHT22;29398;45.328;5.558;2022-11-15T06:45:16;11.80;99.90
7738;DHT22;29398;45.328;5.558;2022-11-15T06:46:36;11.80;99.90
7738;DHT22;29398;45.328;5.558;2022-11-15T06:47:56;11.90;99.90
7738;DHT22;29398;45.328;5.558;2022-11-15T06:49:17;11.80;99.90
7738;DHT22;29398;45.328;5.558;2022-11-15T06:50:37;11.80;99.90
7738;DHT22;29398;45.328;5.558;2022-11-15T06:51:58;11.80;99.90
7738;DHT22;29398;45.328;5.558;2022-11-15T06:53:18;11.80;99.90
7738;DHT22;29398;45.328;5.558;2022-11-15T06:54:39;11.60;99.90
7738;DHT22;29398;45.328;5.558;2022-11-15T06:56:00;11.70;99.90
7738;DHT22;29398;45.328;5.558;2022-11-15T06:57:19;11.90;99.90
7738;DHT22;29398;45.328;5.558;2022-11-15T06:58:41;11.90;99.90
7738;DHT22;29398;45.328;5.558;2022-11-15T07:00:03;11.90;99.90
7738;DHT22;29398;45.328;5.558;2022-11-15T07:01:23;11.90;99.90
7738;DHT22;29398;45.328;5.558;2022-11-15T07:02:43;11.80;99.90
7738;DHT22;29398;45.328;5.558;2022-11-15T07:04:04;11.90;99.90
7738;DHT22;29398;45.328;5.558;2022-11-15T07:05:25;11.90;99.90
7738;DHT22;29398;45.328;5.558;2022-11-15T07:06:46;11.90;99.90
7738;DHT22;29398;45.328;5.558;2022-11-15T07:08:07;11.90;99.90
7738;DHT22;29398;45.328;5.558;2022-11-15T07:09:28;11.90;99.90
7738;DHT22;29398;45.328;5.558;2022-11-15T07:10:49;11.90;99.90
7738;DHT22;29398;45.328;5.558;2022-11-15T07:12:09;11.90;99.90
7738;DHT22;29398;45.328;5.558;2022-11-15T07:13:31;11.90;99.90
7738;DHT22;29398;45.328;5.558;2022-11-15T07:14:53;11.90;99.90
7738;DHT22;29398;45.328;5.558;2022-11-15T07:16:14;11.90;99.90
7738;DHT22;29398;45.328;5.558;2022-11-15T07:17:35;11.90;99.90
7738;DHT22;29398;45.328;5.558;2022-11-15T07:18:55;11.90;99.90
7738;DHT22;29398;45.328;5.558;2022-11-15T07:20:16;11.90;99.90
7738;DHT22;29398;45.328;5.558;2022-11-15T07:21:37;11.90;99.90
7738;DHT22;29398;45.328;5.558;2022-11-15T07:22:59;11.90;99.90
7738;DHT22;29398;45.328;5.558;2022-11-15T07:24:21;11.90;99.90
7738;DHT22;29398;45.328;5.558;2022-11-15T07:25:41;11.90;99.90
7738;DHT22;29398;45.328;5.558;2022-11-15T07:27:02;11.90;99.90
7738;DHT22;29398;45.328;5.558;2022-11-15T07:28:22;12.00;99.90
7738;DHT22;29398;45.328;5.558;2022-11-15T07:29:42;12.10;99.90
7738;DHT22;29398;45.328;5.558;2022-11-15T07:31:06;12.00;99.90
7738;DHT22;29398;45.328;5.558;2022-11-15T07:32:27;12.00;99.90
7738;DHT22;29398;45.328;5.558;2022-11-15T07:33:48;12.10;99.90
7738;DHT22;29398;45.328;5.558;2022-11-15T07:35:08;12.00;99.90
7738;DHT22;29398;45.328;5.558;2022-11-15T07:36:28;12.00;99.90
7738;DHT22;29398;45.328;5.558;2022-11-15T07:37:55;12.10;99.90
7738;DHT22;29398;45.328;5.558;2022-11-15T07:39:15;12.10;99.90
7738;DHT22;29398;45.328;5.558;2022-11-15T07:40:36;12.20;99.90
7738;DHT22;29398;45.328;5.558;2022-11-15T07:41:56;12.20;99.90
7738;DHT22;29398;45.328;5.558;2022-11-15T07:43:31;12.40;99.90
7738;DHT22;29398;45.328;5.558;2022-11-15T07:44:52;12.20;99.90
7738;DHT22;29398;45.328;5.558;2022-11-15T07:46:14;12.20;99.90
7738;DHT22;29398;45.328;5.558;2022-11-15T07:47:35;12.20;99.90
7738;DHT22;29398;45.328;5.558;2022-11-15T07:48:55;12.20;99.90
7738;DHT22;29398;45.328;5.558;2022-11-15T07:50:16;12.30;99.90
7738;DHT22;29398;45.328;5.558;2022-11-15T07:51:36;12.20;99.90
7738;DHT22;29398;45.328;5.558;2022-11-15T07:52:58;12.20;99.90
7738;DHT22;29398;45.328;5.558;2022-11-15T07:54:19;12.20;99.90
7738;DHT22;29398;45.328;5.558;2022-11-15T07:55:40;12.20;99.90
7738;DHT22;29398;45.328;5.558;2022-11-15T07:57:01;12.20;99.90
7738;DHT22;29398;45.328;5.558;2022-11-15T07:58:21;12.30;99.90
7738;DHT22;29398;45.328;5.558;2022-11-15T07:59:42;12.30;99.90
7738;DHT22;29398;45.328;5.558;2022-11-15T08:01:03;12.30;99.90
7738;DHT22;29398;45.328;5.558;2022-11-15T08:02:25;12.30;99.90
7738;DHT22;29398;45.328;5.558;2022-11-15T08:03:46;12.30;99.90
7738;DHT22;29398;45.328;5.558;2022-11-15T08:05:07;12.30;99.90
7738;DHT22;29398;45.328;5.558;2022-11-15T08:06:27;12.40;99.90
7738;DHT22;29398;45.328;5.558;2022-11-15T08:07:48;12.40;99.90
7738;DHT22;29398;45.328;5.558;2022-11-15T08:09:12;12.50;99.90
7738;DHT22;29398;45.328;5.558;2022-11-15T08:10:33;12.50;99.90
7738;DHT22;29398;45.328;5.558;2022-11-15T08:11:53;12.50;99.90
7738;DHT22;29398;45.328;5.558;2022-11-15T08:13:14;12.60;99.90
7738;DHT22;29398;45.328;5.558;2022-11-15T08:14:35;12.60;99.90
7738;DHT22;29398;45.328;5.558;2022-11-15T08:15:58;12.60;99.90
7738;DHT22;29398;45.328;5.558;2022-11-15T08:17:19;12.60;99.90
7738;DHT22;29398;45.328;5.558;2022-11-15T08:18:41;12.70;99.90
7738;DHT22;29398;45.328;5.558;2022-11-15T08:20:03;12.70;99.90
7738;DHT22;29398;45.328;5.558;2022-11-15T08:21:23;12.70;99.90
7738;DHT22;29398;45.328;5.558;2022-11-15T08:22:44;12.80;99.90
7738;DHT22;29398;45.328;5.558;2022-11-15T08:24:05;12.80;99.90
7738;DHT22;29398;45.328;5.558;2022-11-15T08:25:27;12.80;99.90
7738;DHT22;29398;45.328;5.558;2022-11-15T08:26:48;12.90;99.90
7738;DHT22;29398;45.328;5.558;2022-11-15T08:28:09;12.90;99.90
7738;DHT22;29398;45.328;5.558;2022-11-15T08:29:30;12.90;99.90
7738;DHT22;29398;45.328;5.558;2022-11-15T08:30:50;13.00;99.90
7738;DHT22;29398;45.328;5.558;2022-11-15T08:32:11;12.90;99.90
7738;DHT22;29398;45.328;5.558;2022-11-15T08:33:33;13.10;99.90
7738;DHT22;29398;45.328;5.558;2022-11-15T08:34:55;13.00;99.90
7738;DHT22;29398;45.328;5.558;2022-11-15T08:36:16;13.00;99.90
7738;DHT22;29398;45.328;5.558;2022-11-15T08:37:37;13.00;99.90
7738;DHT22;29398;45.328;5.558;2022-11-15T08:38:57;13.00;99.90
7738;DHT22;29398;45.328;5.558;2022-11-15T08:40:17;13.10;99.90
7738;DHT22;29398;45.328;5.558;2022-11-15T08:41:39;13.10;99.90
7738;DHT22;29398;45.328;5.558;2022-11-15T08:43:00;13.10;99.90
7738;DHT22;29398;45.328;5.558;2022-11-15T08:44:22;13.20;99.90
7738;DHT22;29398;45.328;5.558;2022-11-15T08:45:43;13.20;99.90
7738;DHT22;29398;45.328;5.558;2022-11-15T08:47:04;13.20;99.90
7738;DHT22;29398;45.328;5.558;2022-11-15T08:48:25;13.20;99.90
7738;DHT22;29398;45.328;5.558;2022-11-15T08:49:46;13.30;99.90